sensor_id;sensor_type;location;lat;lon;timestamp;P1;durP1;ratioP1;P2;durP2;ratioP2
12511;SDS011;6321;53.798;10.382;2022-12-07T00:01:33;21.97;;;12.43;;
12511;SDS011;6321;53.798;10.382;2022-12-07T00:04:00;19.00;;;13.17;;
12511;SDS011;6321;53.798;10.382;2022-12-07T00:06:30;22.00;;;13.80;;
12511;SDS011;6321;53.798;10.382;2022-12-07T00:08:56;22.87;;;14.30;;
12511;SDS011;6321;53.798;10.382;2022-12-07T00:11:22;19.37;;;12.47;;
12511;SDS011;6321;53.798;10.382;2022-12-07T00:13:55;21.13;;;13.20;;
12511;SDS011;6321;53.798;10.382;2022-12-07T00:16:24;22.17;;;13.73;;
12511;SDS011;6321;53.798;10.382;2022-12-07T00:18:50;17.77;;;12.63;;
12511;SDS011;6321;53.798;10.382;2022-12-07T00:21:18;19.43;;;12.83;;
12511;SDS011;6321;53.798;10.382;2022-12-07T00:23:44;16.17;;;11.67;;
12511;SDS011;6321;53.798;10.382;2022-12-07T00:26:13;16.80;;;11.93;;
12511;SDS011;6321;53.798;10.382;2022-12-07T00:28:39;19.07;;;12.47;;
12511;SDS011;6321;53.798;10.382;2022-12-07T00:31:06;15.47;;;11.00;;
12511;SDS011;6321;53.798;10.382;2022-12-07T00:33:33;18.63;;;11.50;;
12511;SDS011;6321;53.798;10.382;2022-12-07T00:35:59;18.93;;;11.77;;
12511;SDS011;6321;53.798;10.382;2022-12-07T00:38:27;17.70;;;11.83;;
12511;SDS011;6321;53.798;10.382;2022-12-07T00:40:54;17.00;;;11.50;;
12511;SDS011;6321;53.798;10.382;2022-12-07T00:43:20;17.87;;;12.80;;
12511;SDS011;6321;53.798;10.382;2022-12-07T00:45:46;18.47;;;12.43;;
12511;SDS011;6321;53.798;10.382;2022-12-07T00:48:12;18.63;;;13.20;;
12511;SDS011;6321;53.798;10.382;2022-12-07T00:50:38;23.83;;;14.07;;
12511;SDS011;6321;53.798;10.382;2022-12-07T00:53:04;21.43;;;14.17;;
12511;SDS011;6321;53.798;10.382;2022-12-07T00:55:33;21.37;;;14.63;;
12511;SDS011;6321;53.798;10.382;2022-12-07T00:57:59;23.17;;;14.40;;
12511;SDS011;6321;53.798;10.382;2022-12-07T01:00:25;22.20;;;15.07;;
12511;SDS011;6321;53.798;10.382;2022-12-07T01:02:51;22.30;;;14.73;;
12511;SDS011;6321;53.798;10.382;2022-12-07T01:05:17;21.10;;;14.57;;
12511;SDS011;6321;53.798;10.382;2022-12-07T01:07:44;24.40;;;15.90;;
12511;SDS011;6321;53.798;10.382;2022-12-07T01:10:11;24.63;;;17.20;;
12511;SDS011;6321;53.798;10.382;2022-12-07T01:12:37;26.47;;;15.47;;
12511;SDS011;6321;53.798;10.382;2022-12-07T01:15:03;24.53;;;15.97;;
12511;SDS011;6321;53.798;10.382;2022-12-07T01:17:29;26.60;;;15.67;;
12511;SDS011;6321;53.798;10.382;2022-12-07T01:19:55;24.50;;;16.47;;
12511;SDS011;6321;53.798;10.382;2022-12-07T01:22:21;24.63;;;16.00;;
12511;SDS011;6321;53.798;10.382;2022-12-07T01:24:47;25.20;;;15.53;;
12511;SDS011;6321;53.798;10.382;2022-12-07T01:27:13;25.97;;;16.73;;
12511;SDS011;6321;53.798;10.382;2022-12-07T01:29:39;22.53;;;15.40;;
12511;SDS011;6321;53.798;10.382;2022-12-07T01:32:05;24.03;;;16.60;;
12511;SDS011;6321;53.798;10.382;2022-12-07T01:34:31;22.93;;;15.60;;
12511;SDS011;6321;53.798;10.382;2022-12-07T01:36:57;23.30;;;15.80;;
12511;SDS011;6321;53.798;10.382;2022-12-07T01:39:23;25.13;;;15.33;;
12511;SDS011;6321;53.798;10.382;2022-12-07T01:41:49;21.07;;;14.37;;
12511;SDS011;6321;53.798;10.382;2022-12-07T01:46:42;24.37;;;15.57;;
12511;SDS011;6321;53.798;10.382;2022-12-07T01:49:10;24.67;;;16.53;;
12511;SDS011;6321;53.798;10.382;2022-12-07T01:51:36;22.33;;;14.10;;
12511;SDS011;6321;53.798;10.382;2022-12-07T01:54:04;24.47;;;15.53;;
12511;SDS011;6321;53.798;10.382;2022-12-07T01:56:30;22.07;;;13.97;;
12511;SDS011;6321;53.798;10.382;2022-12-07T01:58:56;22.13;;;14.43;;
12511;SDS011;6321;53.798;10.382;2022-12-07T02:01:22;20.07;;;13.53;;
12511;SDS011;6321;53.798;10.382;2022-12-07T02:03:48;22.90;;;15.03;;
12511;SDS011;6321;53.798;10.382;2022-12-07T02:06:16;23.30;;;12.67;;
12511;SDS011;6321;53.798;10.382;2022-12-07T02:08:44;19.33;;;13.00;;
12511;SDS011;6321;53.798;10.382;2022-12-07T02:11:10;24.33;;;13.90;;
12511;SDS011;6321;53.798;10.382;2022-12-07T02:13:37;17.83;;;11.17;;
12511;SDS011;6321;53.798;10.382;2022-12-07T02:21:32;18.70;;;12.43;;
12511;SDS011;6321;53.798;10.382;2022-12-07T02:24:08;18.77;;;11.67;;
12511;SDS011;6321;53.798;10.382;2022-12-07T02:27:25;17.77;;;10.80;;
12511;SDS011;6321;53.798;10.382;2022-12-07T02:32:21;9.73;;;6.80;;
12511;SDS011;6321;53.798;10.382;2022-12-07T02:35:01;16.47;;;9.07;;
12511;SDS011;6321;53.798;10.382;2022-12-07T02:42:35;12.40;;;8.13;;
12511;SDS011;6321;53.798;10.382;2022-12-07T02:45:02;12.17;;;8.97;;
12511;SDS011;6321;53.798;10.382;2022-12-07T02:47:30;14.33;;;9.23;;
12511;SDS011;6321;53.798;10.382;2022-12-07T02:49:57;11.87;;;9.07;;
12511;SDS011;6321;53.798;10.382;2022-12-07T02:52:23;14.70;;;9.83;;
12511;SDS011;6321;53.798;10.382;2022-12-07T02:54:49;16.20;;;10.17;;
12511;SDS011;6321;53.798;10.382;2022-12-07T03:00:09;14.13;;;8.57;;
12511;SDS011;6321;53.798;10.382;2022-12-07T03:02:57;13.17;;;8.77;;
12511;SDS011;6321;53.798;10.382;2022-12-07T03:05:46;13.17;;;9.33;;
12511;SDS011;6321;53.798;10.382;2022-12-07T03:11:03;13.83;;;7.87;;
12511;SDS011;6321;53.798;10.382;2022-12-07T03:14:17;13.53;;;9.33;;
12511;SDS011;6321;53.798;10.382;2022-12-07T03:16:18;14.17;;;7.30;;
12511;SDS011;6321;53.798;10.382;2022-12-07T03:18:55;9.23;;;5.67;;
12511;SDS011;6321;53.798;10.382;2022-12-07T03:21:23;11.83;;;7.87;;
12511;SDS011;6321;53.798;10.382;2022-12-07T03:23:51;9.40;;;5.50;;
12511;SDS011;6321;53.798;10.382;2022-12-07T03:26:18;15.77;;;7.80;;
12511;SDS011;6321;53.798;10.382;2022-12-07T03:28:47;10.57;;;7.27;;
12511;SDS011;6321;53.798;10.382;2022-12-07T03:31:16;11.87;;;7.10;;
12511;SDS011;6321;53.798;10.382;2022-12-07T03:34:29;11.50;;;7.43;;
12511;SDS011;6321;53.798;10.382;2022-12-07T03:36:31;11.33;;;6.90;;
12511;SDS011;6321;53.798;10.382;2022-12-07T03:39:00;12.80;;;7.87;;
12511;SDS011;6321;53.798;10.382;2022-12-07T03:41:29;9.67;;;6.43;;
12511;SDS011;6321;53.798;10.382;2022-12-07T03:43:56;12.23;;;7.40;;
12511;SDS011;6321;53.798;10.382;2022-12-07T03:49:25;8.87;;;5.90;;
12511;SDS011;6321;53.798;10.382;2022-12-07T03:54:34;12.13;;;6.37;;
12511;SDS011;6321;53.798;10.382;2022-12-07T03:57:01;8.27;;;5.27;;
12511;SDS011;6321;53.798;10.382;2022-12-07T03:59:28;7.50;;;4.93;;
12511;SDS011;6321;53.798;10.382;2022-12-07T04:01:56;9.17;;;5.33;;
12511;SDS011;6321;53.798;10.382;2022-12-07T04:04:23;8.80;;;5.30;;
12511;SDS011;6321;53.798;10.382;2022-12-07T04:06:50;6.47;;;5.07;;
12511;SDS011;6321;53.798;10.382;2022-12-07T04:09:16;6.80;;;5.20;;
12511;SDS011;6321;53.798;10.382;2022-12-07T04:11:43;8.47;;;5.43;;
12511;SDS011;6321;53.798;10.382;2022-12-07T04:14:09;7.90;;;4.73;;
12511;SDS011;6321;53.798;10.382;2022-12-07T04:16:48;8.00;;;5.07;;
12511;SDS011;6321;53.798;10.382;2022-12-07T04:19:14;7.60;;;5.00;;
12511;SDS011;6321;53.798;10.382;2022-12-07T04:21:40;10.67;;;5.07;;
12511;SDS011;6321;53.798;10.382;2022-12-07T04:24:06;7.53;;;4.87;;
12511;SDS011;6321;53.798;10.382;2022-12-07T04:26:32;6.27;;;4.97;;
12511;SDS011;6321;53.798;10.382;2022-12-07T04:28:58;9.53;;;5.07;;
12511;SDS011;6321;53.798;10.382;2022-12-07T04:31:24;10.47;;;6.67;;
12511;SDS011;6321;53.798;10.382;2022-12-07T04:33:50;7.13;;;6.03;;
12511;SDS011;6321;53.798;10.382;2022-12-07T04:36:16;7.00;;;5.40;;
12511;SDS011;6321;53.798;10.382;2022-12-07T04:38:44;5.67;;;4.67;;
12511;SDS011;6321;53.798;10.382;2022-12-07T04:41:10;6.57;;;4.97;;
12511;SDS011;6321;53.798;10.382;2022-12-07T04:43:36;9.87;;;5.70;;
12511;SDS011;6321;53.798;10.382;2022-12-07T04:46:02;7.53;;;5.37;;
12511;SDS011;6321;53.798;10.382;2022-12-07T04:48:28;8.07;;;5.87;;
12511;SDS011;6321;53.798;10.382;2022-12-07T04:50:54;7.80;;;5.47;;
12511;SDS011;6321;53.798;10.382;2022-12-07T04:53:20;8.37;;;5.63;;
12511;SDS011;6321;53.798;10.382;2022-12-07T04:55:46;9.13;;;5.67;;
12511;SDS011;6321;53.798;10.382;2022-12-07T04:58:12;7.40;;;5.67;;
12511;SDS011;6321;53.798;10.382;2022-12-07T05:00:39;8.07;;;5.63;;
12511;SDS011;6321;53.798;10.382;2022-12-07T05:03:05;7.80;;;6.23;;
12511;SDS011;6321;53.798;10.382;2022-12-07T05:05:31;11.03;;;5.63;;
12511;SDS011;6321;53.798;10.382;2022-12-07T05:07:57;8.40;;;6.20;;
12511;SDS011;6321;53.798;10.382;2022-12-07T05:10:23;9.30;;;5.97;;
12511;SDS011;6321;53.798;10.382;2022-12-07T05:12:49;8.83;;;5.80;;
12511;SDS011;6321;53.798;10.382;2022-12-07T05:15:15;8.23;;;5.60;;
12511;SDS011;6321;53.798;10.382;2022-12-07T05:17:41;7.67;;;5.57;;
12511;SDS011;6321;53.798;10.382;2022-12-07T05:20:07;8.17;;;5.60;;
12511;SDS011;6321;53.798;10.382;2022-12-07T05:22:33;5.83;;;5.03;;
12511;SDS011;6321;53.798;10.382;2022-12-07T05:24:59;7.67;;;5.27;;
12511;SDS011;6321;53.798;10.382;2022-12-07T05:27:25;7.77;;;5.60;;
12511;SDS011;6321;53.798;10.382;2022-12-07T05:29:51;7.20;;;4.57;;
12511;SDS011;6321;53.798;10.382;2022-12-07T05:32:17;7.93;;;5.73;;
12511;SDS011;6321;53.798;10.382;2022-12-07T05:34:43;9.23;;;6.47;;
12511;SDS011;6321;53.798;10.382;2022-12-07T05:37:09;10.30;;;5.67;;
12511;SDS011;6321;53.798;10.382;2022-12-07T05:39:35;10.30;;;6.47;;
12511;SDS011;6321;53.798;10.382;2022-12-07T05:42:02;8.07;;;6.27;;
12511;SDS011;6321;53.798;10.382;2022-12-07T05:44:44;9.60;;;7.27;;
12511;SDS011;6321;53.798;10.382;2022-12-07T05:47:11;9.33;;;6.63;;
12511;SDS011;6321;53.798;10.382;2022-12-07T05:49:36;13.27;;;7.03;;
12511;SDS011;6321;53.798;10.382;2022-12-07T05:52:03;9.73;;;7.07;;
12511;SDS011;6321;53.798;10.382;2022-12-07T05:54:29;10.27;;;6.53;;
12511;SDS011;6321;53.798;10.382;2022-12-07T05:56:55;13.00;;;7.03;;
12511;SDS011;6321;53.798;10.382;2022-12-07T05:59:21;11.50;;;7.33;;
12511;SDS011;6321;53.798;10.382;2022-12-07T06:01:48;12.20;;;7.13;;
12511;SDS011;6321;53.798;10.382;2022-12-07T06:04:14;11.10;;;7.23;;
12511;SDS011;6321;53.798;10.382;2022-12-07T06:06:40;11.03;;;6.90;;
12511;SDS011;6321;53.798;10.382;2022-12-07T06:09:06;10.17;;;7.00;;
12511;SDS011;6321;53.798;10.382;2022-12-07T06:11:32;11.20;;;6.30;;
12511;SDS011;6321;53.798;10.382;2022-12-07T06:14:16;9.73;;;5.47;;
12511;SDS011;6321;53.798;10.382;2022-12-07T06:16:42;8.40;;;6.20;;
12511;SDS011;6321;53.798;10.382;2022-12-07T06:19:08;8.33;;;6.00;;
12511;SDS011;6321;53.798;10.382;2022-12-07T06:21:34;8.80;;;5.60;;
12511;SDS011;6321;53.798;10.382;2022-12-07T06:24:00;8.90;;;5.70;;
12511;SDS011;6321;53.798;10.382;2022-12-07T06:26:27;8.03;;;5.37;;
12511;SDS011;6321;53.798;10.382;2022-12-07T06:28:52;9.43;;;5.13;;
12511;SDS011;6321;53.798;10.382;2022-12-07T06:31:18;5.57;;;4.50;;
12511;SDS011;6321;53.798;10.382;2022-12-07T06:33:44;8.07;;;5.20;;
12511;SDS011;6321;53.798;10.382;2022-12-07T06:36:10;7.93;;;5.47;;
12511;SDS011;6321;53.798;10.382;2022-12-07T06:38:36;8.17;;;5.20;;
12511;SDS011;6321;53.798;10.382;2022-12-07T06:41:02;9.00;;;5.47;;
12511;SDS011;6321;53.798;10.382;2022-12-07T06:43:29;7.87;;;4.73;;
12511;SDS011;6321;53.798;10.382;2022-12-07T06:45:55;7.43;;;4.53;;
12511;SDS011;6321;53.798;10.382;2022-12-07T06:48:21;6.73;;;5.10;;
12511;SDS011;6321;53.798;10.382;2022-12-07T06:50:47;7.83;;;4.97;;
12511;SDS011;6321;53.798;10.382;2022-12-07T06:53:13;7.73;;;4.77;;
12511;SDS011;6321;53.798;10.382;2022-12-07T06:55:39;8.13;;;5.13;;
12511;SDS011;6321;53.798;10.382;2022-12-07T06:58:05;6.77;;;4.87;;
12511;SDS011;6321;53.798;10.382;2022-12-07T07:00:31;7.87;;;4.80;;
12511;SDS011;6321;53.798;10.382;2022-12-07T07:02:57;8.77;;;5.07;;
12511;SDS011;6321;53.798;10.382;2022-12-07T07:05:23;8.17;;;5.53;;
12511;SDS011;6321;53.798;10.382;2022-12-07T07:07:49;8.33;;;4.83;;
12511;SDS011;6321;53.798;10.382;2022-12-07T07:10:15;8.10;;;4.70;;
12511;SDS011;6321;53.798;10.382;2022-12-07T07:12:41;8.83;;;5.10;;
12511;SDS011;6321;53.798;10.382;2022-12-07T07:15:07;8.13;;;5.23;;
12511;SDS011;6321;53.798;10.382;2022-12-07T07:17:33;6.97;;;4.70;;
12511;SDS011;6321;53.798;10.382;2022-12-07T07:19:59;10.93;;;5.60;;
12511;SDS011;6321;53.798;10.382;2022-12-07T07:22:25;10.40;;;5.93;;
12511;SDS011;6321;53.798;10.382;2022-12-07T07:24:51;9.57;;;5.33;;
12511;SDS011;6321;53.798;10.382;2022-12-07T07:27:16;8.57;;;5.60;;
12511;SDS011;6321;53.798;10.382;2022-12-07T07:29:42;7.60;;;5.57;;
12511;SDS011;6321;53.798;10.382;2022-12-07T07:32:08;10.37;;;5.90;;
12511;SDS011;6321;53.798;10.382;2022-12-07T07:34:34;7.07;;;4.90;;
12511;SDS011;6321;53.798;10.382;2022-12-07T07:37:00;7.07;;;5.13;;
12511;SDS011;6321;53.798;10.382;2022-12-07T07:39:26;7.17;;;5.43;;
12511;SDS011;6321;53.798;10.382;2022-12-07T07:41:52;10.43;;;6.00;;
12511;SDS011;6321;53.798;10.382;2022-12-07T07:44:18;9.03;;;5.67;;
12511;SDS011;6321;53.798;10.382;2022-12-07T07:46:44;8.10;;;5.67;;
12511;SDS011;6321;53.798;10.382;2022-12-07T07:49:10;11.20;;;6.27;;
12511;SDS011;6321;53.798;10.382;2022-12-07T07:51:36;9.13;;;5.33;;
12511;SDS011;6321;53.798;10.382;2022-12-07T07:54:02;10.67;;;5.73;;
12511;SDS011;6321;53.798;10.382;2022-12-07T07:56:28;8.23;;;5.80;;
12511;SDS011;6321;53.798;10.382;2022-12-07T07:58:54;13.47;;;6.60;;
12511;SDS011;6321;53.798;10.382;2022-12-07T08:01:20;7.77;;;5.40;;
12511;SDS011;6321;53.798;10.382;2022-12-07T08:03:46;8.43;;;5.47;;
12511;SDS011;6321;53.798;10.382;2022-12-07T08:06:12;6.30;;;5.40;;
12511;SDS011;6321;53.798;10.382;2022-12-07T08:08:38;10.67;;;5.67;;
12511;SDS011;6321;53.798;10.382;2022-12-07T08:11:05;10.90;;;5.80;;
12511;SDS011;6321;53.798;10.382;2022-12-07T08:13:31;11.83;;;6.00;;
12511;SDS011;6321;53.798;10.382;2022-12-07T08:15:57;10.47;;;5.83;;
12511;SDS011;6321;53.798;10.382;2022-12-07T08:18:23;8.40;;;5.33;;
12511;SDS011;6321;53.798;10.382;2022-12-07T08:20:49;9.07;;;5.43;;
12511;SDS011;6321;53.798;10.382;2022-12-07T08:23:15;9.63;;;5.50;;
12511;SDS011;6321;53.798;10.382;2022-12-07T08:25:41;6.50;;;5.03;;
12511;SDS011;6321;53.798;10.382;2022-12-07T08:28:07;7.47;;;4.73;;
12511;SDS011;6321;53.798;10.382;2022-12-07T08:30:33;8.50;;;4.90;;
12511;SDS011;6321;53.798;10.382;2022-12-07T08:32:59;11.13;;;5.00;;
12511;SDS011;6321;53.798;10.382;2022-12-07T08:35:25;10.53;;;5.07;;
12511;SDS011;6321;53.798;10.382;2022-12-07T08:37:51;8.17;;;4.87;;
12511;SDS011;6321;53.798;10.382;2022-12-07T08:40:17;6.27;;;4.90;;
12511;SDS011;6321;53.798;10.382;2022-12-07T08:42:44;7.37;;;4.57;;
12511;SDS011;6321;53.798;10.382;2022-12-07T08:45:11;5.67;;;3.90;;
12511;SDS011;6321;53.798;10.382;2022-12-07T08:47:38;8.60;;;4.33;;
12511;SDS011;6321;53.798;10.382;2022-12-07T08:50:06;9.57;;;4.23;;
12511;SDS011;6321;53.798;10.382;2022-12-07T08:52:33;10.77;;;4.57;;
12511;SDS011;6321;53.798;10.382;2022-12-07T08:55:00;10.73;;;4.80;;
12511;SDS011;6321;53.798;10.382;2022-12-07T08:57:27;8.00;;;3.83;;
12511;SDS011;6321;53.798;10.382;2022-12-07T08:59:53;6.20;;;4.30;;
12511;SDS011;6321;53.798;10.382;2022-12-07T09:02:19;8.33;;;3.70;;
12511;SDS011;6321;53.798;10.382;2022-12-07T09:04:45;4.53;;;3.43;;
12511;SDS011;6321;53.798;10.382;2022-12-07T09:07:11;7.70;;;4.07;;
12511;SDS011;6321;53.798;10.382;2022-12-07T09:09:37;34.73;;;7.43;;
12511;SDS011;6321;53.798;10.382;2022-12-07T09:12:03;4.50;;;3.30;;
12511;SDS011;6321;53.798;10.382;2022-12-07T09:14:29;7.53;;;3.57;;
12511;SDS011;6321;53.798;10.382;2022-12-07T09:16:56;7.23;;;3.50;;
12511;SDS011;6321;53.798;10.382;2022-12-07T09:19:30;6.60;;;3.17;;
12511;SDS011;6321;53.798;10.382;2022-12-07T09:21:55;6.97;;;3.20;;
12511;SDS011;6321;53.798;10.382;2022-12-07T09:24:21;4.67;;;2.43;;
12511;SDS011;6321;53.798;10.382;2022-12-07T09:26:47;6.13;;;2.87;;
12511;SDS011;6321;53.798;10.382;2022-12-07T09:29:13;8.33;;;3.20;;
12511;SDS011;6321;53.798;10.382;2022-12-07T09:31:40;8.27;;;4.00;;
12511;SDS011;6321;53.798;10.382;2022-12-07T09:34:06;6.77;;;2.97;;
12511;SDS011;6321;53.798;10.382;2022-12-07T09:36:32;6.87;;;3.00;;
12511;SDS011;6321;53.798;10.382;2022-12-07T09:38:58;5.03;;;3.13;;
12511;SDS011;6321;53.798;10.382;2022-12-07T09:41:24;7.67;;;2.50;;
12511;SDS011;6321;53.798;10.382;2022-12-07T09:43:51;5.63;;;2.37;;
12511;SDS011;6321;53.798;10.382;2022-12-07T09:46:17;5.93;;;2.33;;
12511;SDS011;6321;53.798;10.382;2022-12-07T09:48:45;3.20;;;2.20;;
12511;SDS011;6321;53.798;10.382;2022-12-07T09:51:17;4.73;;;2.20;;
12511;SDS011;6321;53.798;10.382;2022-12-07T09:53:43;11.97;;;3.10;;
12511;SDS011;6321;53.798;10.382;2022-12-07T09:56:11;6.43;;;2.83;;
12511;SDS011;6321;53.798;10.382;2022-12-07T09:58:38;4.73;;;2.20;;
12511;SDS011;6321;53.798;10.382;2022-12-07T10:03:34;7.07;;;2.40;;
12511;SDS011;6321;53.798;10.382;2022-12-07T10:06:01;5.37;;;2.20;;
12511;SDS011;6321;53.798;10.382;2022-12-07T10:08:27;7.07;;;2.37;;
12511;SDS011;6321;53.798;10.382;2022-12-07T10:10:54;4.93;;;2.20;;
12511;SDS011;6321;53.798;10.382;2022-12-07T10:13:34;5.93;;;2.57;;
12511;SDS011;6321;53.798;10.382;2022-12-07T10:16:01;7.23;;;2.60;;
12511;SDS011;6321;53.798;10.382;2022-12-07T10:21:00;7.80;;;2.37;;
12511;SDS011;6321;53.798;10.382;2022-12-07T10:23:27;4.10;;;2.10;;
12511;SDS011;6321;53.798;10.382;2022-12-07T10:25:53;6.63;;;1.67;;
12511;SDS011;6321;53.798;10.382;2022-12-07T10:28:20;3.70;;;2.13;;
12511;SDS011;6321;53.798;10.382;2022-12-07T10:30:51;5.63;;;2.37;;
12511;SDS011;6321;53.798;10.382;2022-12-07T10:33:33;12.50;;;3.10;;
12511;SDS011;6321;53.798;10.382;2022-12-07T10:36:00;3.70;;;2.53;;
12511;SDS011;6321;53.798;10.382;2022-12-07T10:38:27;5.90;;;2.27;;
12511;SDS011;6321;53.798;10.382;2022-12-07T10:41:06;6.87;;;2.47;;
12511;SDS011;6321;53.798;10.382;2022-12-07T10:43:32;8.50;;;2.73;;
12511;SDS011;6321;53.798;10.382;2022-12-07T10:46:07;7.47;;;2.17;;
12511;SDS011;6321;53.798;10.382;2022-12-07T10:49:23;9.47;;;2.57;;
12511;SDS011;6321;53.798;10.382;2022-12-07T10:51:31;8.80;;;2.30;;
12511;SDS011;6321;53.798;10.382;2022-12-07T10:54:09;2.70;;;1.83;;
12511;SDS011;6321;53.798;10.382;2022-12-07T11:07:02;4.53;;;2.30;;
12511;SDS011;6321;53.798;10.382;2022-12-07T11:12:09;8.70;;;2.47;;
12511;SDS011;6321;53.798;10.382;2022-12-07T11:14:44;5.27;;;2.10;;
12511;SDS011;6321;53.798;10.382;2022-12-07T11:17:14;6.37;;;1.87;;
12511;SDS011;6321;53.798;10.382;2022-12-07T11:19:49;6.00;;;1.47;;
12511;SDS011;6321;53.798;10.382;2022-12-07T11:24:56;7.13;;;3.10;;
12511;SDS011;6321;53.798;10.382;2022-12-07T11:27:31;4.13;;;1.90;;
12511;SDS011;6321;53.798;10.382;2022-12-07T11:30:12;5.47;;;1.80;;
12511;SDS011;6321;53.798;10.382;2022-12-07T11:35:08;10.23;;;1.70;;
12511;SDS011;6321;53.798;10.382;2022-12-07T11:37:35;5.10;;;1.37;;
12511;SDS011;6321;53.798;10.382;2022-12-07T11:42:52;6.60;;;1.83;;
12511;SDS011;6321;53.798;10.382;2022-12-07T11:45:20;3.70;;;1.77;;
12511;SDS011;6321;53.798;10.382;2022-12-07T11:50:30;4.07;;;1.80;;
12511;SDS011;6321;53.798;10.382;2022-12-07T11:52:58;4.23;;;1.30;;
12511;SDS011;6321;53.798;10.382;2022-12-07T11:55:42;7.83;;;1.30;;
12511;SDS011;6321;53.798;10.382;2022-12-07T11:58:20;4.33;;;1.30;;
12511;SDS011;6321;53.798;10.382;2022-12-07T12:00:49;4.97;;;1.57;;
12511;SDS011;6321;53.798;10.382;2022-12-07T12:03:23;4.83;;;1.53;;
12511;SDS011;6321;53.798;10.382;2022-12-07T12:05:55;4.90;;;1.40;;
12511;SDS011;6321;53.798;10.382;2022-12-07T12:08:22;3.63;;;1.40;;
12511;SDS011;6321;53.798;10.382;2022-12-07T12:10:57;4.70;;;1.40;;
12511;SDS011;6321;53.798;10.382;2022-12-07T12:16:08;4.87;;;1.33;;
12511;SDS011;6321;53.798;10.382;2022-12-07T12:21:28;5.90;;;1.50;;
12511;SDS011;6321;53.798;10.382;2022-12-07T12:23:56;7.77;;;1.20;;
12511;SDS011;6321;53.798;10.382;2022-12-07T12:26:24;3.17;;;1.20;;
12511;SDS011;6321;53.798;10.382;2022-12-07T12:28:56;2.43;;;1.37;;
12511;SDS011;6321;53.798;10.382;2022-12-07T12:33:53;5.10;;;1.43;;
12511;SDS011;6321;53.798;10.382;2022-12-07T12:46:56;2.40;;;1.30;;
12511;SDS011;6321;53.798;10.382;2022-12-07T12:54:32;3.03;;;1.67;;
12511;SDS011;6321;53.798;10.382;2022-12-07T12:57:06;3.30;;;1.13;;
12511;SDS011;6321;53.798;10.382;2022-12-07T12:59:35;7.73;;;1.70;;
12511;SDS011;6321;53.798;10.382;2022-12-07T13:20:48;1.20;;;0.77;;
12511;SDS011;6321;53.798;10.382;2022-12-07T13:23:16;1.50;;;0.87;;
12511;SDS011;6321;53.798;10.382;2022-12-07T13:25:45;3.97;;;0.93;;
12511;SDS011;6321;53.798;10.382;2022-12-07T13:28:15;3.13;;;0.90;;
12511;SDS011;6321;53.798;10.382;2022-12-07T13:30:43;2.40;;;0.87;;
12511;SDS011;6321;53.798;10.382;2022-12-07T13:33:10;6.23;;;1.27;;
12511;SDS011;6321;53.798;10.382;2022-12-07T13:35:37;3.03;;;0.90;;
12511;SDS011;6321;53.798;10.382;2022-12-07T13:38:16;2.33;;;0.73;;
12511;SDS011;6321;53.798;10.382;2022-12-07T13:40:58;2.90;;;1.30;;
12511;SDS011;6321;53.798;10.382;2022-12-07T13:43:24;2.40;;;1.17;;
12511;SDS011;6321;53.798;10.382;2022-12-07T13:45:55;3.80;;;1.20;;
12511;SDS011;6321;53.798;10.382;2022-12-07T13:48:23;4.33;;;1.00;;
12511;SDS011;6321;53.798;10.382;2022-12-07T13:50:54;5.47;;;2.27;;
12511;SDS011;6321;53.798;10.382;2022-12-07T13:53:20;2.20;;;0.90;;
12511;SDS011;6321;53.798;10.382;2022-12-07T13:55:46;2.07;;;0.80;;
12511;SDS011;6321;53.798;10.382;2022-12-07T13:58:12;1.93;;;0.90;;
12511;SDS011;6321;53.798;10.382;2022-12-07T14:00:39;2.87;;;1.10;;
12511;SDS011;6321;53.798;10.382;2022-12-07T14:05:38;3.60;;;1.10;;
12511;SDS011;6321;53.798;10.382;2022-12-07T14:10:37;3.93;;;1.50;;
12511;SDS011;6321;53.798;10.382;2022-12-07T14:13:22;1.90;;;1.20;;
12511;SDS011;6321;53.798;10.382;2022-12-07T14:15:50;2.77;;;0.90;;
12511;SDS011;6321;53.798;10.382;2022-12-07T14:18:30;2.67;;;1.37;;
12511;SDS011;6321;53.798;10.382;2022-12-07T14:21:03;1.63;;;1.53;;
12511;SDS011;6321;53.798;10.382;2022-12-07T14:23:29;6.07;;;4.17;;
12511;SDS011;6321;53.798;10.382;2022-12-07T14:26:04;4.83;;;1.07;;
12511;SDS011;6321;53.798;10.382;2022-12-07T14:28:31;5.10;;;1.53;;
12511;SDS011;6321;53.798;10.382;2022-12-07T14:30:58;4.07;;;1.47;;
12511;SDS011;6321;53.798;10.382;2022-12-07T14:33:24;3.77;;;1.47;;
12511;SDS011;6321;53.798;10.382;2022-12-07T14:35:50;2.73;;;1.27;;
12511;SDS011;6321;53.798;10.382;2022-12-07T14:38:20;1.17;;;1.07;;
12511;SDS011;6321;53.798;10.382;2022-12-07T14:40:46;4.97;;;3.47;;
12511;SDS011;6321;53.798;10.382;2022-12-07T14:43:14;1.00;;;0.90;;
12511;SDS011;6321;53.798;10.382;2022-12-07T14:45:40;6.50;;;3.77;;
12511;SDS011;6321;53.798;10.382;2022-12-07T14:48:07;4.20;;;2.47;;
12511;SDS011;6321;53.798;10.382;2022-12-07T14:50:38;3.13;;;1.27;;
12511;SDS011;6321;53.798;10.382;2022-12-07T14:53:09;1.30;;;1.20;;
12511;SDS011;6321;53.798;10.382;2022-12-07T14:55:35;1.67;;;1.27;;
12511;SDS011;6321;53.798;10.382;2022-12-07T14:58:02;4.07;;;2.43;;
12511;SDS011;6321;53.798;10.382;2022-12-07T15:00:27;2.97;;;1.90;;
12511;SDS011;6321;53.798;10.382;2022-12-07T15:02:55;2.53;;;1.80;;
12511;SDS011;6321;53.798;10.382;2022-12-07T15:05:21;1.20;;;1.10;;
12511;SDS011;6321;53.798;10.382;2022-12-07T15:07:48;26.13;;;17.77;;
12511;SDS011;6321;53.798;10.382;2022-12-07T15:10:16;9.97;;;6.30;;
12511;SDS011;6321;53.798;10.382;2022-12-07T15:12:43;4.77;;;2.30;;
12511;SDS011;6321;53.798;10.382;2022-12-07T15:15:09;15.27;;;11.60;;
12511;SDS011;6321;53.798;10.382;2022-12-07T15:17:35;3.70;;;2.80;;
12511;SDS011;6321;53.798;10.382;2022-12-07T15:20:01;7.23;;;4.57;;
12511;SDS011;6321;53.798;10.382;2022-12-07T15:22:27;1.40;;;1.20;;
12511;SDS011;6321;53.798;10.382;2022-12-07T15:24:54;4.37;;;2.00;;
12511;SDS011;6321;53.798;10.382;2022-12-07T15:27:20;3.10;;;1.80;;
12511;SDS011;6321;53.798;10.382;2022-12-07T15:29:46;11.40;;;7.33;;
12511;SDS011;6321;53.798;10.382;2022-12-07T15:32:12;27.33;;;15.00;;
12511;SDS011;6321;53.798;10.382;2022-12-07T15:34:38;2.30;;;1.73;;
12511;SDS011;6321;53.798;10.382;2022-12-07T15:37:04;7.17;;;3.57;;
12511;SDS011;6321;53.798;10.382;2022-12-07T15:39:30;2.87;;;1.83;;
12511;SDS011;6321;53.798;10.382;2022-12-07T15:41:56;4.97;;;2.53;;
12511;SDS011;6321;53.798;10.382;2022-12-07T15:44:22;7.60;;;6.37;;
12511;SDS011;6321;53.798;10.382;2022-12-07T15:47:07;9.13;;;4.17;;
12511;SDS011;6321;53.798;10.382;2022-12-07T15:49:33;13.03;;;9.20;;
12511;SDS011;6321;53.798;10.382;2022-12-07T15:51:59;11.27;;;6.13;;
12511;SDS011;6321;53.798;10.382;2022-12-07T15:54:26;9.10;;;4.70;;
12511;SDS011;6321;53.798;10.382;2022-12-07T15:56:52;4.93;;;1.40;;
12511;SDS011;6321;53.798;10.382;2022-12-07T15:59:18;6.50;;;3.80;;
12511;SDS011;6321;53.798;10.382;2022-12-07T16:01:44;4.33;;;1.73;;
12511;SDS011;6321;53.798;10.382;2022-12-07T16:04:10;6.23;;;2.13;;
12511;SDS011;6321;53.798;10.382;2022-12-07T16:06:36;4.57;;;2.53;;
12511;SDS011;6321;53.798;10.382;2022-12-07T16:09:02;7.33;;;1.97;;
12511;SDS011;6321;53.798;10.382;2022-12-07T16:11:28;4.37;;;2.47;;
12511;SDS011;6321;53.798;10.382;2022-12-07T16:13:54;5.50;;;3.47;;
12511;SDS011;6321;53.798;10.382;2022-12-07T16:16:20;5.87;;;3.40;;
12511;SDS011;6321;53.798;10.382;2022-12-07T16:18:47;16.33;;;9.57;;
12511;SDS011;6321;53.798;10.382;2022-12-07T16:21:14;3.00;;;2.17;;
12511;SDS011;6321;53.798;10.382;2022-12-07T16:23:40;8.40;;;6.10;;
12511;SDS011;6321;53.798;10.382;2022-12-07T16:26:13;5.43;;;3.00;;
12511;SDS011;6321;53.798;10.382;2022-12-07T16:28:39;4.23;;;1.30;;